Time;durP1;ratioP1;P1;durP2;ratioP2;P2;SDS_P1;SDS_P2;PMS_P1;PMS_P2;Temp;Humidity;BMP_temperature;BMP_pressure;BME280_temperature;BME280_humidity;BME280_pressure;Samples;Min_cycle;Max_cycle;Signal;HPM_P1;HPM_P2
2022/01/13 00:01:54;;;;;;;30.45;16.20;;;;;;;;;;5093267;28;20024;-75
2022/01/13 00:04:20;;;;;;;34.17;15.90;;;;;;;;;;5092788;28;20020;-76
2022/01/13 00:06:47;;;;;;;25.88;14.85;;;;;;;;;;5093215;28;20029;-76
2022/01/13 00:09:14;;;;;;;28.88;15.50;;;;;;;;;;5093028;28;20036;-75
2022/01/13 00:11:40;;;;;;;35.35;16.92;;;;;;;;;;5092777;28;20020;-76
2022/01/13 00:16:56;;;;;;;29.33;16.08;;;;;;;;;;5095075;28;20098;-76
2022/01/13 00:19:34;;;;;;;28.63;15.13;;;;;;;;;;5097180;28;20037;-76
2022/01/13 00:22:15;;;;;;;31.35;15.32;;;;;;;;;;5097084;28;20061;-76
2022/01/13 00:24:45;;;;;;;32.03;16.83;;;;;;;;;;5096604;28;20076;-75
2022/01/13 00:27:13;;;;;;;31.92;16.83;;;;;;;;;;5097219;28;20016;-75
2022/01/13 00:29:42;;;;;;;30.33;15.77;;;;;;;;;;5096870;28;20065;-75
2022/01/13 00:32:10;;;;;;;33.40;15.73;;;;;;;;;;5096434;28;20089;-75
2022/01/13 00:34:36;;;;;;;34.05;17.73;;;;;;;;;;5096780;28;20123;-75
2022/01/13 00:37:02;;;;;;;38.70;16.10;;;;;;;;;;5096740;28;20024;-75
2022/01/13 00:39:29;;;;;;;28.92;14.02;;;;;;;;;;5096353;28;20024;-76
2022/01/13 00:41:55;;;;;;;31.25;15.32;;;;;;;;;;5096763;28;20024;-75
2022/01/13 00:44:21;;;;;;;32.50;15.43;;;;;;;;;;5097200;28;20013;-75
2022/01/13 00:46:57;;;;;;;32.28;15.65;;;;;;;;;;5096236;28;20020;-75
2022/01/13 00:49:24;;;;;;;32.08;15.52;;;;;;;;;;5096589;28;20560;-75
2022/01/13 00:51:50;;;;;;;29.65;14.77;;;;;;;;;;5096016;28;20547;-75
2022/01/13 00:54:17;;;;;;;31.98;16.05;;;;;;;;;;5096832;28;20055;-75
2022/01/13 00:56:43;;;;;;;31.48;16.30;;;;;;;;;;5095181;28;20028;-75
2022/01/13 00:59:13;;;;;;;32.38;14.90;;;;;;;;;;5096229;28;20095;-75
2022/01/13 01:01:41;;;;;;;30.42;16.08;;;;;;;;;;5096337;28;20046;-75
2022/01/13 01:04:08;;;;;;;28.30;14.40;;;;;;;;;;5096366;28;20027;-76
2022/01/13 01:06:35;;;;;;;29.67;14.10;;;;;;;;;;5094526;28;20518;-76
2022/01/13 01:09:01;;;;;;;32.38;14.68;;;;;;;;;;5095968;28;20520;-76
2022/01/13 01:11:28;;;;;;;32.45;16.00;;;;;;;;;;5096059;28;20032;-76
2022/01/13 01:13:55;;;;;;;32.58;13.88;;;;;;;;;;5095681;28;20389;-76
2022/01/13 01:16:22;;;;;;;32.60;13.82;;;;;;;;;;5096119;28;20544;-76
2022/01/13 01:19:01;;;;;;;34.35;15.65;;;;;;;;;;5095941;28;20463;-76
2022/01/13 01:28:59;;;;;;;33.65;14.57;;;;;;;;;;5094380;28;20513;-75
2022/01/13 01:31:29;;;;;;;30.08;14.80;;;;;;;;;;5095806;28;20384;-75
2022/01/13 01:36:41;;;;;;;27.83;14.40;;;;;;;;;;5095744;28;20123;-75
2022/01/13 01:39:08;;;;;;;28.40;14.13;;;;;;;;;;5095566;28;20020;-75
2022/01/13 01:41:36;;;;;;;29.10;13.80;;;;;;;;;;5095228;28;20059;-75
2022/01/13 01:44:09;;;;;;;32.42;15.80;;;;;;;;;;5095543;28;20112;-75
2022/01/13 01:46:39;;;;;;;27.35;14.43;;;;;;;;;;5095575;28;20028;-75
2022/01/13 01:49:15;;;;;;;26.85;13.55;;;;;;;;;;5095211;28;20099;-76
2022/01/13 01:51:42;;;;;;;26.70;14.02;;;;;;;;;;5095463;28;20020;-76
2022/01/13 01:54:08;;;;;;;30.67;14.27;;;;;;;;;;5095311;28;20028;-75
2022/01/13 01:56:36;;;;;;;24.00;13.38;;;;;;;;;;5094899;28;20069;-74
2022/01/13 01:59:04;;;;;;;27.67;12.80;;;;;;;;;;5093965;28;20081;-74
2022/01/13 02:01:30;;;;;;;38.30;16.38;;;;;;;;;;5095143;28;20020;-75
2022/01/13 02:03:56;;;;;;;36.25;16.48;;;;;;;;;;5094737;28;20031;-76
2022/01/13 02:06:22;;;;;;;31.05;14.90;;;;;;;;;;5095272;28;20016;-76
2022/01/13 02:08:49;;;;;;;30.42;15.02;;;;;;;;;;5094980;28;20381;-76
2022/01/13 02:11:15;;;;;;;29.77;14.30;;;;;;;;;;5094569;28;20032;-75
2022/01/13 02:13:48;;;;;;;30.60;13.88;;;;;;;;;;5094960;28;20066;-75
2022/01/13 02:16:38;;;;;;;33.95;15.63;;;;;;;;;;5094633;28;20043;-75
2022/01/13 02:19:03;;;;;;;28.65;13.38;;;;;;;;;;5094708;28;20036;-76
2022/01/13 02:21:30;;;;;;;33.72;14.23;;;;;;;;;;5095004;28;20519;-75
2022/01/13 02:23:56;;;;;;;27.77;14.07;;;;;;;;;;5094327;28;20059;-75
2022/01/13 02:26:22;;;;;;;30.40;15.10;;;;;;;;;;5094936;28;20028;-75
2022/01/13 02:28:51;;;;;;;30.33;14.13;;;;;;;;;;5094728;28;20425;-75
2022/01/13 02:31:19;;;;;;;27.40;13.30;;;;;;;;;;5094302;28;20454;-75
2022/01/13 02:33:45;;;;;;;23.65;12.25;;;;;;;;;;5094969;28;20048;-75
2022/01/13 02:36:12;;;;;;;30.88;15.70;;;;;;;;;;5094796;28;20043;-74
2022/01/13 02:38:38;;;;;;;27.33;13.35;;;;;;;;;;5093906;28;20054;-75
2022/01/13 02:41:05;;;;;;;22.23;11.52;;;;;;;;;;5094471;28;20545;-75
2022/01/13 02:43:33;;;;;;;25.08;12.48;;;;;;;;;;5094542;28;20093;-76
2022/01/13 02:46:18;;;;;;;27.40;12.55;;;;;;;;;;5094066;28;20116;-75
2022/01/13 02:48:46;;;;;;;28.52;12.38;;;;;;;;;;5094581;28;20065;-76
2022/01/13 02:51:12;;;;;;;25.17;13.55;;;;;;;;;;5093866;28;20102;-75
2022/01/13 02:53:38;;;;;;;21.90;12.23;;;;;;;;;;5094305;28;20032;-76
2022/01/13 02:56:05;;;;;;;22.95;12.02;;;;;;;;;;5094232;28;20034;-74
2022/01/13 02:58:32;;;;;;;33.65;12.23;;;;;;;;;;5093843;28;20032;-75
2022/01/13 03:00:58;;;;;;;20.88;9.93;;;;;;;;;;5094319;28;20059;-74
2022/01/13 03:03:24;;;;;;;24.33;12.10;;;;;;;;;;5094031;28;20024;-75
2022/01/13 03:05:51;;;;;;;22.98;11.07;;;;;;;;;;5092531;28;20031;-75
2022/01/13 03:08:17;;;;;;;25.27;11.40;;;;;;;;;;5094039;28;20070;-76
2022/01/13 03:10:43;;;;;;;27.70;10.43;;;;;;;;;;5093986;28;20025;-76
2022/01/13 03:13:10;;;;;;;21.02;10.52;;;;;;;;;;5093552;28;20051;-75
2022/01/13 03:15:36;;;;;;;17.13;9.93;;;;;;;;;;5093951;28;20027;-75
2022/01/13 03:18:02;;;;;;;19.70;9.73;;;;;;;;;;5094002;28;20047;-76
2022/01/13 03:20:29;;;;;;;20.42;10.38;;;;;;;;;;5093404;28;20467;-75
2022/01/13 03:22:55;;;;;;;20.55;10.02;;;;;;;;;;5092534;28;20491;-75
2022/01/13 03:25:23;;;;;;;20.27;9.60;;;;;;;;;;5093807;28;20031;-75
2022/01/13 03:27:55;;;;;;;25.10;12.18;;;;;;;;;;5093533;28;20100;-75
2022/01/13 03:30:21;;;;;;;26.83;10.73;;;;;;;;;;5094007;28;20487;-75
2022/01/13 03:32:47;;;;;;;23.73;10.63;;;;;;;;;;5093890;28;20039;-75
2022/01/13 03:35:14;;;;;;;19.83;10.10;;;;;;;;;;5093138;28;20051;-75
2022/01/13 03:37:40;;;;;;;22.60;10.43;;;;;;;;;;5093601;28;20388;-75
2022/01/13 03:40:07;;;;;;;19.13;10.43;;;;;;;;;;5093500;28;20032;-75
2022/01/13 03:42:33;;;;;;;22.83;10.00;;;;;;;;;;5093371;28;20412;-75
2022/01/13 03:45:00;;;;;;;24.08;10.98;;;;;;;;;;5093468;28;20527;-75
2022/01/13 03:47:26;;;;;;;19.67;9.70;;;;;;;;;;5093033;28;20029;-76
2022/01/13 03:49:54;;;;;;;26.42;11.77;;;;;;;;;;5092122;28;20028;-76
2022/01/13 03:52:23;;;;;;;18.00;9.43;;;;;;;;;;5096867;28;20032;-75
2022/01/13 03:55:08;;;;;;;25.23;10.90;;;;;;;;;;5097464;28;20046;-74
2022/01/13 03:57:49;;;;;;;17.52;8.95;;;;;;;;;;5097601;28;20020;-73
2022/01/13 04:00:15;;;;;;;22.13;9.45;;;;;;;;;;5097777;28;20081;-73
2022/01/13 04:02:41;;;;;;;21.10;10.30;;;;;;;;;;5097311;28;20388;-74
2022/01/13 04:05:07;;;;;;;21.23;10.35;;;;;;;;;;5097378;28;20472;-75
2022/01/13 04:07:34;;;;;;;19.27;8.82;;;;;;;;;;5097382;28;20036;-75
2022/01/13 04:10:00;;;;;;;18.77;10.02;;;;;;;;;;5096803;28;20058;-74
2022/01/13 04:12:27;;;;;;;17.38;8.20;;;;;;;;;;5097251;28;20059;-74
2022/01/13 04:14:57;;;;;;;20.08;9.13;;;;;;;;;;5097374;28;20054;-74
2022/01/13 04:17:24;;;;;;;23.55;9.68;;;;;;;;;;5097133;28;20365;-74
2022/01/13 04:19:51;;;;;;;20.17;9.40;;;;;;;;;;5097348;28;20487;-74
2022/01/13 04:22:18;;;;;;;20.35;10.50;;;;;;;;;;5097102;28;20508;-74
2022/01/13 04:24:45;;;;;;;19.52;9.38;;;;;;;;;;5096588;28;20035;-74
2022/01/13 04:27:20;;;;;;;22.30;11.20;;;;;;;;;;5097023;28;20384;-74
2022/01/13 04:29:48;;;;;;;20.83;9.40;;;;;;;;;;5096877;28;20027;-74
2022/01/13 04:32:14;;;;;;;21.58;10.73;;;;;;;;;;5096883;28;20028;-74
2022/01/13 04:34:41;;;;;;;18.38;9.57;;;;;;;;;;5096878;28;20039;-74
2022/01/13 04:37:07;;;;;;;25.17;9.93;;;;;;;;;;5096507;28;20107;-74
2022/01/13 04:39:33;;;;;;;19.02;9.13;;;;;;;;;;5096807;28;20103;-74
2022/01/13 04:42:00;;;;;;;18.92;9.00;;;;;;;;;;5096867;28;20031;-74
2022/01/13 04:44:26;;;;;;;19.70;10.13;;;;;;;;;;5096288;28;20484;-74
2022/01/13 04:46:54;;;;;;;23.65;10.73;;;;;;;;;;5096644;28;20031;-74
2022/01/13 04:49:20;;;;;;;19.88;9.95;;;;;;;;;;5096790;28;20020;-74
2022/01/13 04:51:48;;;;;;;21.02;8.48;;;;;;;;;;5096065;28;20067;-75
2022/01/13 04:54:14;;;;;;;19.52;9.32;;;;;;;;;;5096505;28;20032;-74
2022/01/13 04:56:44;;;;;;;20.70;9.32;;;;;;;;;;5096471;28;20028;-74
2022/01/13 04:59:11;;;;;;;21.27;10.13;;;;;;;;;;5096053;28;20040;-74
2022/01/13 05:01:37;;;;;;;17.23;8.88;;;;;;;;;;5095029;28;20034;-74
2022/01/13 05:04:04;;;;;;;28.73;11.00;;;;;;;;;;5095123;28;20024;-75
2022/01/13 05:06:30;;;;;;;29.25;11.85;;;;;;;;;;5095955;28;20043;-75
2022/01/13 05:08:57;;;;;;;24.00;11.50;;;;;;;;;;5096026;28;20113;-75
2022/01/13 05:11:23;;;;;;;21.13;10.10;;;;;;;;;;5096141;28;20063;-75
2022/01/13 05:13:49;;;;;;;24.73;10.65;;;;;;;;;;5095848;28;20479;-75
2022/01/13 05:16:31;;;;;;;21.67;10.18;;;;;;;;;;5096111;28;20471;-76
2022/01/13 05:19:23;;;;;;;21.42;10.48;;;;;;;;;;5095945;28;20031;-74
2022/01/13 05:22:15;;;;;;;20.23;10.15;;;;;;;;;;5095523;28;20039;-75
2022/01/13 05:24:30;;;;;;;22.25;10.40;;;;;;;;;;5095775;28;20035;-74
2022/01/13 05:26:56;;;;;;;20.90;8.52;;;;;;;;;;5095538;28;20049;-74
2022/01/13 05:29:22;;;;;;;21.52;10.25;;;;;;;;;;5095873;28;20020;-73
2022/01/13 05:31:50;;;;;;;27.50;10.93;;;;;;;;;;5095723;28;20086;-73
2022/01/13 05:34:17;;;;;;;29.83;14.00;;;;;;;;;;5095336;28;20522;-73
2022/01/13 05:36:43;;;;;;;21.65;11.05;;;;;;;;;;5095768;28;20104;-73
2022/01/13 05:39:10;;;;;;;21.60;11.07;;;;;;;;;;5095935;28;20073;-73
2022/01/13 05:41:36;;;;;;;18.83;8.95;;;;;;;;;;5095223;28;20094;-73
2022/01/13 05:44:03;;;;;;;24.58;9.98;;;;;;;;;;5095569;28;20532;-73
2022/01/13 05:46:29;;;;;;;26.08;11.70;;;;;;;;;;5095539;28;20019;-73
2022/01/13 05:48:56;;;;;;;27.13;12.02;;;;;;;;;;5093815;28;20395;-74
2022/01/13 05:51:22;;;;;;;23.30;10.95;;;;;;;;;;5095924;28;20111;-74
2022/01/13 05:53:49;;;;;;;30.88;12.65;;;;;;;;;;5095404;28;20058;-73
2022/01/13 05:56:15;;;;;;;30.10;11.75;;;;;;;;;;5093608;28;20417;-73
2022/01/13 05:58:41;;;;;;;24.27;11.23;;;;;;;;;;5095392;28;20024;-74
2022/01/13 06:01:08;;;;;;;25.20;12.27;;;;;;;;;;5095063;28;20055;-73
2022/01/13 06:03:34;;;;;;;29.20;12.73;;;;;;;;;;5095379;28;20028;-74
2022/01/13 06:06:01;;;;;;;34.72;15.85;;;;;;;;;;5095256;28;20099;-75
2022/01/13 06:08:27;;;;;;;40.20;15.57;;;;;;;;;;5094471;28;20040;-71
2022/01/13 06:10:53;;;;;;;44.90;18.80;;;;;;;;;;5095198;28;20054;-71
2022/01/13 06:13:19;;;;;;;59.92;21.92;;;;;;;;;;5094683;28;20105;-70
2022/01/13 06:15:45;;;;;;;38.50;15.70;;;;;;;;;;5092761;28;20028;-71
2022/01/13 06:18:12;;;;;;;31.25;16.17;;;;;;;;;;5092578;28;20157;-71
2022/01/13 06:20:39;;;;;;;30.90;14.88;;;;;;;;;;5094858;28;20020;-73
2022/01/13 06:23:07;;;;;;;31.20;13.85;;;;;;;;;;5094164;28;20043;-72
2022/01/13 06:25:33;;;;;;;27.02;14.68;;;;;;;;;;5094874;28;20020;-72
2022/01/13 06:27:59;;;;;;;38.67;18.08;;;;;;;;;;5094135;28;20031;-72
2022/01/13 06:30:26;;;;;;;36.28;15.27;;;;;;;;;;5094256;28;20420;-70
2022/01/13 06:32:52;;;;;;;31.35;15.73;;;;;;;;;;5094270;28;20463;-69
2022/01/13 06:35:18;;;;;;;27.90;14.50;;;;;;;;;;5094363;28;20028;-72
2022/01/13 06:37:45;;;;;;;32.67;15.50;;;;;;;;;;5093762;28;20028;-71
2022/01/13 06:40:12;;;;;;;36.92;15.40;;;;;;;;;;5094271;28;20020;-69
2022/01/13 06:42:39;;;;;;;33.55;14.38;;;;;;;;;;5092984;28;20020;-69
2022/01/13 06:45:06;;;;;;;44.20;19.95;;;;;;;;;;5093751;28;20052;-70
2022/01/13 06:47:32;;;;;;;43.80;16.70;;;;;;;;;;5094192;28;20073;-71
2022/01/13 06:49:59;;;;;;;40.28;18.67;;;;;;;;;;5094132;28;20526;-71
2022/01/13 06:52:25;;;;;;;32.10;17.15;;;;;;;;;;5093707;28;20495;-72
2022/01/13 06:54:52;;;;;;;30.48;14.55;;;;;;;;;;5093928;28;20469;-71
2022/01/13 06:57:19;;;;;;;37.53;15.77;;;;;;;;;;5093642;28;20020;-72
2022/01/13 06:59:46;;;;;;;26.40;13.73;;;;;;;;;;5094263;28;20028;-71
2022/01/13 07:02:13;;;;;;;29.63;15.65;;;;;;;;;;5094275;28;20027;-70
2022/01/13 07:04:39;;;;;;;33.42;15.98;;;;;;;;;;5093646;28;20012;-69
2022/01/13 07:07:05;;;;;;;35.47;18.80;;;;;;;;;;5093726;28;20119;-68
2022/01/13 07:09:31;;;;;;;28.95;16.67;;;;;;;;;;5081907;28;20123;-69
2022/01/13 07:11:58;;;;;;;31.23;15.73;;;;;;;;;;5088450;28;20032;-69
2022/01/13 07:14:24;;;;;;;31.55;14.35;;;;;;;;;;5089273;28;20028;-68
2022/01/13 07:16:50;;;;;;;42.72;18.55;;;;;;;;;;5088795;28;20050;-69
2022/01/13 07:19:16;;;;;;;37.13;17.63;;;;;;;;;;5089861;28;20525;-69
2022/01/13 07:21:44;;;;;;;42.08;19.85;;;;;;;;;;5090262;28;20059;-68
2022/01/13 07:24:10;;;;;;;29.15;13.55;;;;;;;;;;5090361;28;20047;-68
2022/01/13 07:26:37;;;;;;;31.92;15.40;;;;;;;;;;5089160;28;20057;-69
2022/01/13 07:29:04;;;;;;;34.47;13.73;;;;;;;;;;5090406;28;20480;-68
2022/01/13 07:31:30;;;;;;;31.08;13.15;;;;;;;;;;5086600;28;20524;-70
2022/01/13 07:33:56;;;;;;;30.45;12.50;;;;;;;;;;5089422;28;20522;-68
2022/01/13 07:36:23;;;;;;;28.25;14.45;;;;;;;;;;5083286;28;20020;-70
2022/01/13 07:38:49;;;;;;;30.35;15.30;;;;;;;;;;5088220;28;20035;-70
2022/01/13 07:41:15;;;;;;;25.48;13.60;;;;;;;;;;5089867;28;20103;-69
2022/01/13 07:43:47;;;;;;;27.92;14.02;;;;;;;;;;5092782;28;20028;-70
2022/01/13 07:46:13;;;;;;;28.77;13.98;;;;;;;;;;5092915;28;20054;-67
2022/01/13 07:48:39;;;;;;;26.33;13.55;;;;;;;;;;5092150;28;20388;-68
2022/01/13 07:51:06;;;;;;;24.80;12.13;;;;;;;;;;5092946;28;20437;-69
2022/01/13 07:53:32;;;;;;;26.15;13.65;;;;;;;;;;5092051;28;20033;-68
2022/01/13 07:55:58;;;;;;;29.02;14.05;;;;;;;;;;5091901;28;20020;-68
2022/01/13 07:58:25;;;;;;;25.70;14.48;;;;;;;;;;5092107;28;20498;-67
2022/01/13 08:00:52;;;;;;;27.45;15.32;;;;;;;;;;5092392;28;20036;-68
2022/01/13 08:03:18;;;;;;;30.17;16.02;;;;;;;;;;5091946;28;20439;-66
2022/01/13 08:05:44;;;;;;;33.42;14.55;;;;;;;;;;5092661;28;20031;-69
2022/01/13 08:08:10;;;;;;;25.88;14.10;;;;;;;;;;5092257;28;20396;-69
2022/01/13 08:10:36;;;;;;;28.33;12.73;;;;;;;;;;5092522;28;20024;-69
2022/01/13 08:13:03;;;;;;;34.28;16.95;;;;;;;;;;5092716;28;20043;-68
2022/01/13 08:15:29;;;;;;;25.60;13.55;;;;;;;;;;5092430;28;20099;-69
2022/01/13 08:20:40;;;;;;;31.23;14.70;;;;;;;;;;5092904;28;20089;-67
2022/01/13 08:23:09;;;;;;;27.88;14.50;;;;;;;;;;5092327;28;20031;-67
2022/01/13 08:25:35;;;;;;;32.03;16.80;;;;;;;;;;5087398;28;20030;-69
2022/01/13 08:28:01;;;;;;;32.40;15.75;;;;;;;;;;5091700;28;20415;-68
2022/01/13 08:30:28;;;;;;;28.98;14.13;;;;;;;;;;5092262;28;20046;-68
2022/01/13 08:32:54;;;;;;;29.60;15.98;;;;;;;;;;5092026;28;20074;-66
2022/01/13 08:35:20;;;;;;;29.27;15.82;;;;;;;;;;5091355;28;20031;-68
2022/01/13 08:37:46;;;;;;;31.65;16.60;;;;;;;;;;5094400;28;20477;-68
2022/01/13 08:40:14;;;;;;;31.33;17.42;;;;;;;;;;5095525;28;20499;-69
2022/01/13 08:42:40;;;;;;;29.42;16.63;;;;;;;;;;5095760;28;20031;-69
2022/01/13 08:45:08;;;;;;;27.65;14.77;;;;;;;;;;5092927;28;20120;-67
2022/01/13 08:47:34;;;;;;;27.25;14.38;;;;;;;;;;5091500;28;20532;-68
2022/01/13 08:50:00;;;;;;;29.92;15.23;;;;;;;;;;5095758;28;20031;-66
2022/01/13 08:52:27;;;;;;;25.35;14.18;;;;;;;;;;5095577;28;20038;-68
2022/01/13 08:54:55;;;;;;;37.58;17.50;;;;;;;;;;5095999;28;20024;-69
2022/01/13 08:57:22;;;;;;;34.90;17.00;;;;;;;;;;5095157;28;20391;-69
2022/01/13 08:59:48;;;;;;;31.08;14.48;;;;;;;;;;5094303;28;20028;-67
2022/01/13 09:02:14;;;;;;;28.63;15.32;;;;;;;;;;5095042;28;20048;-67
2022/01/13 09:04:41;;;;;;;30.60;15.32;;;;;;;;;;5095241;28;20024;-70
2022/01/13 09:07:07;;;;;;;33.42;16.15;;;;;;;;;;5095197;28;20024;-69
2022/01/13 09:09:34;;;;;;;34.53;15.82;;;;;;;;;;5095338;28;20044;-70
2022/01/13 09:12:00;;;;;;;36.72;18.63;;;;;;;;;;5093647;28;20036;-69
2022/01/13 09:14:28;;;;;;;34.58;16.42;;;;;;;;;;5094746;28;20031;-71
2022/01/13 09:16:57;;;;;;;29.27;13.35;;;;;;;;;;5095050;28;20024;-69
2022/01/13 09:19:23;;;;;;;31.77;14.07;;;;;;;;;;5095245;28;20029;-68
2022/01/13 09:21:50;;;;;;;30.83;14.07;;;;;;;;;;5094587;28;20051;-68
2022/01/13 09:24:17;;;;;;;29.25;16.65;;;;;;;;;;5095456;28;20077;-70
2022/01/13 09:26:44;;;;;;;35.78;19.80;;;;;;;;;;5094788;28;20118;-71
2022/01/13 09:29:11;;;;;;;28.80;16.50;;;;;;;;;;5094632;28;20099;-69
2022/01/13 09:31:38;;;;;;;33.78;17.40;;;;;;;;;;5094829;28;20032;-69
2022/01/13 09:34:05;;;;;;;32.20;17.08;;;;;;;;;;5093665;28;20024;-71
2022/01/13 09:36:32;;;;;;;31.27;15.30;;;;;;;;;;5092727;28;20238;-70
2022/01/13 09:38:59;;;;;;;35.00;18.95;;;;;;;;;;5092619;28;20031;-68
2022/01/13 09:41:28;;;;;;;32.33;17.02;;;;;;;;;;5092635;28;20103;-69
2022/01/13 09:43:54;;;;;;;35.15;17.90;;;;;;;;;;5092587;28;20035;-69
2022/01/13 09:46:22;;;;;;;30.38;15.57;;;;;;;;;;5092655;28;20024;-70
2022/01/13 09:48:50;;;;;;;33.40;17.75;;;;;;;;;;5093272;28;20419;-71
2022/01/13 09:51:16;;;;;;;33.42;16.98;;;;;;;;;;5094002;28;20103;-68
2022/01/13 09:53:42;;;;;;;31.45;16.55;;;;;;;;;;5093883;28;20472;-69
2022/01/13 09:56:10;;;;;;;31.98;18.83;;;;;;;;;;5091048;28;20027;-69
2022/01/13 09:58:37;;;;;;;31.70;15.38;;;;;;;;;;5094668;28;20537;-70
2022/01/13 10:01:03;;;;;;;27.65;13.55;;;;;;;;;;5090293;28;20024;-70
2022/01/13 10:03:30;;;;;;;30.10;14.80;;;;;;;;;;5094250;28;20028;-70
2022/01/13 10:05:58;;;;;;;26.33;15.30;;;;;;;;;;5094819;28;20032;-69
2022/01/13 10:08:39;;;;;;;31.65;15.25;;;;;;;;;;5093826;28;20123;-72
2022/01/13 10:11:24;;;;;;;34.13;18.27;;;;;;;;;;5093989;28;20384;-73
2022/01/13 10:14:02;;;;;;;35.38;18.95;;;;;;;;;;5094031;28;20066;-69
2022/01/13 10:16:28;;;;;;;26.02;14.73;;;;;;;;;;5093654;28;20095;-70
2022/01/13 10:18:55;;;;;;;36.00;16.10;;;;;;;;;;5093676;28;20032;-68
2022/01/13 10:21:21;;;;;;;30.38;16.17;;;;;;;;;;5093506;28;20039;-68
2022/01/13 10:24:03;;;;;;;35.80;16.98;;;;;;;;;;5093772;28;20027;-69
2022/01/13 10:26:30;;;;;;;34.85;20.70;;;;;;;;;;5094283;28;20495;-73
2022/01/13 10:28:57;;;;;;;43.42;19.95;;;;;;;;;;5089119;28;20020;-69
2022/01/13 10:31:42;;;;;;;33.03;17.13;;;;;;;;;;5090891;28;20032;-71
2022/01/13 10:34:19;;;;;;;28.25;14.52;;;;;;;;;;5093607;28;20089;-71
2022/01/13 10:37:06;;;;;;;39.55;17.63;;;;;;;;;;5088805;28;20028;-67
2022/01/13 10:39:48;;;;;;;33.67;15.90;;;;;;;;;;5092082;28;20024;-68
2022/01/13 10:42:43;;;;;;;26.40;15.82;;;;;;;;;;5091109;28;20484;-68
2022/01/13 10:45:01;;;;;;;32.80;14.80;;;;;;;;;;5092557;28;20047;-67
2022/01/13 10:47:28;;;;;;;34.17;17.08;;;;;;;;;;5093073;28;20024;-67
2022/01/13 10:49:59;;;;;;;27.77;14.60;;;;;;;;;;5092445;28;20099;-68
2022/01/13 10:52:26;;;;;;;33.13;16.42;;;;;;;;;;5093441;28;20476;-69
2022/01/13 10:55:12;;;;;;;37.50;19.20;;;;;;;;;;5093575;28;20035;-68
2022/01/13 10:57:41;;;;;;;31.85;15.82;;;;;;;;;;5092375;28;20081;-71
2022/01/13 11:00:30;;;;;;;26.02;14.02;;;;;;;;;;5093663;28;20016;-70
2022/01/13 11:03:05;;;;;;;34.88;15.30;;;;;;;;;;5093663;28;20028;-68
2022/01/13 11:05:33;;;;;;;30.50;16.85;;;;;;;;;;5092698;28;20031;-67
2022/01/13 11:08:02;;;;;;;34.38;17.55;;;;;;;;;;5093350;28;20396;-68
2022/01/13 11:10:28;;;;;;;30.50;17.25;;;;;;;;;;5093294;28;20028;-69
2022/01/13 11:12:57;;;;;;;26.27;14.98;;;;;;;;;;5092892;28;20492;-68
2022/01/13 11:15:24;;;;;;;32.55;17.08;;;;;;;;;;5093657;28;20016;-67
2022/01/13 11:17:52;;;;;;;24.90;14.30;;;;;;;;;;5092991;28;20020;-67
2022/01/13 11:20:19;;;;;;;28.95;15.65;;;;;;;;;;5093142;28;20016;-68
2022/01/13 11:22:46;;;;;;;27.20;15.25;;;;;;;;;;5093283;28;20032;-69
2022/01/13 11:25:14;;;;;;;32.08;16.48;;;;;;;;;;5092852;28;20024;-67
2022/01/13 11:27:40;;;;;;;25.73;14.80;;;;;;;;;;5092724;28;20031;-68
2022/01/13 11:30:11;;;;;;;29.95;16.45;;;;;;;;;;5092058;28;20491;-70
2022/01/13 11:32:40;;;;;;;34.10;18.02;;;;;;;;;;5092895;28;20032;-69
2022/01/13 11:35:07;;;;;;;33.55;19.52;;;;;;;;;;5093233;28;20032;-70
2022/01/13 11:37:34;;;;;;;29.63;14.93;;;;;;;;;;5093342;28;20049;-71
2022/01/13 11:40:01;;;;;;;28.05;16.23;;;;;;;;;;5092951;28;20527;-68
2022/01/13 11:42:27;;;;;;;30.70;18.13;;;;;;;;;;5092823;28;20503;-70
2022/01/13 11:45:14;;;;;;;30.25;17.02;;;;;;;;;;5093270;28;20032;-68
2022/01/13 11:47:41;;;;;;;30.60;15.95;;;;;;;;;;5092660;28;20044;-69
2022/01/13 11:50:15;;;;;;;35.47;18.67;;;;;;;;;;5091424;28;20416;-70
2022/01/13 11:52:50;;;;;;;39.78;19.00;;;;;;;;;;5090732;28;20388;-69
2022/01/13 11:55:20;;;;;;;31.23;16.58;;;;;;;;;;5091308;28;20023;-70
2022/01/13 11:57:46;;;;;;;28.67;14.95;;;;;;;;;;5091386;28;20039;-68
2022/01/13 12:00:23;;;;;;;26.65;15.27;;;;;;;;;;5091866;28;20091;-69
2022/01/13 12:02:50;;;;;;;32.50;18.15;;;;;;;;;;5092547;28;20032;-69
2022/01/13 12:05:21;;;;;;;41.20;20.77;;;;;;;;;;5092817;28;20046;-69
2022/01/13 12:07:47;;;;;;;34.10;18.70;;;;;;;;;;5092744;28;20028;-68
2022/01/13 12:10:33;;;;;;;32.05;16.73;;;;;;;;;;5093177;28;20089;-69
2022/01/13 12:12:59;;;;;;;30.50;15.60;;;;;;;;;;5095807;28;20035;-70
2022/01/13 12:15:26;;;;;;;30.13;16.05;;;;;;;;;;5096734;28;20480;-70
2022/01/13 12:17:52;;;;;;;29.17;15.40;;;;;;;;;;5096871;28;20450;-70
2022/01/13 12:20:22;;;;;;;33.60;17.65;;;;;;;;;;5096897;28;20030;-70
2022/01/13 12:23:04;;;;;;;26.55;15.20;;;;;;;;;;5096676;28;20020;-72
2022/01/13 12:25:32;;;;;;;28.23;15.57;;;;;;;;;;5096860;28;20099;-71
2022/01/13 12:27:59;;;;;;;29.75;16.52;;;;;;;;;;5095786;28;20432;-69
2022/01/13 12:30:27;;;;;;;33.03;18.73;;;;;;;;;;5096223;28;20507;-72
2022/01/13 12:33:01;;;;;;;28.23;14.93;;;;;;;;;;5094102;28;20056;-69
2022/01/13 12:35:30;;;;;;;24.85;14.90;;;;;;;;;;5094640;28;20023;-70
2022/01/13 12:38:01;;;;;;;27.40;15.10;;;;;;;;;;5094616;28;20376;-71
2022/01/13 12:40:31;;;;;;;30.58;17.80;;;;;;;;;;5094609;28;20429;-69
2022/01/13 12:43:03;;;;;;;34.88;18.88;;;;;;;;;;5094002;28;20020;-69
2022/01/13 12:45:33;;;;;;;35.05;21.27;;;;;;;;;;5094785;28;20020;-67
2022/01/13 12:48:01;;;;;;;30.35;16.70;;;;;;;;;;5096417;28;20074;-68
2022/01/13 12:50:33;;;;;;;32.83;17.13;;;;;;;;;;5095742;28;20146;-67
2022/01/13 12:53:07;;;;;;;31.50;17.77;;;;;;;;;;5095985;28;20040;-67
2022/01/13 12:55:34;;;;;;;31.02;16.65;;;;;;;;;;5095235;28;20424;-66
2022/01/13 12:58:01;;;;;;;31.23;17.77;;;;;;;;;;5095624;28;20020;-67
2022/01/13 13:00:27;;;;;;;32.22;17.52;;;;;;;;;;5095945;28;20469;-67
2022/01/13 13:02:55;;;;;;;34.20;19.25;;;;;;;;;;5095683;28;20032;-72
2022/01/13 13:05:29;;;;;;;34.80;18.80;;;;;;;;;;5095711;28;20028;-69
2022/01/13 13:07:56;;;;;;;31.13;17.58;;;;;;;;;;5094667;28;20505;-68
2022/01/13 13:10:22;;;;;;;31.42;18.40;;;;;;;;;;5095333;28;20032;-69
2022/01/13 13:12:54;;;;;;;34.95;19.15;;;;;;;;;;5093643;28;20150;-69
2022/01/13 13:17:51;;;;;;;41.38;20.00;;;;;;;;;;5094943;28;20063;-69
2022/01/13 13:20:25;;;;;;;35.35;18.63;;;;;;;;;;5095406;28;20020;-69
2022/01/13 13:22:53;;;;;;;35.58;19.73;;;;;;;;;;5094611;28;20052;-69
2022/01/13 13:25:26;;;;;;;39.47;19.23;;;;;;;;;;5094437;28;20024;-69
2022/01/13 13:27:53;;;;;;;35.17;19.42;;;;;;;;;;5095841;28;20090;-69
2022/01/13 13:30:19;;;;;;;41.80;23.10;;;;;;;;;;5095944;28;20020;-69
2022/01/13 13:32:51;;;;;;;33.50;17.95;;;;;;;;;;5095324;28;20036;-68
2022/01/13 13:35:19;;;;;;;34.47;17.50;;;;;;;;;;5095866;28;20020;-69
2022/01/13 13:37:48;;;;;;;33.47;17.42;;;;;;;;;;5095877;28;20020;-69
2022/01/13 13:40:24;;;;;;;34.38;18.63;;;;;;;;;;5095250;28;20085;-69
2022/01/13 13:43:01;;;;;;;29.25;17.27;;;;;;;;;;5095639;28;20365;-69
2022/01/13 13:45:27;;;;;;;34.45;19.42;;;;;;;;;;5095332;28;20019;-69
2022/01/13 13:47:54;;;;;;;37.95;19.63;;;;;;;;;;5095505;28;20032;-68
2022/01/13 13:50:21;;;;;;;36.85;20.58;;;;;;;;;;5095446;28;20028;-69
2022/01/13 13:52:47;;;;;;;41.08;25.95;;;;;;;;;;5095333;28;20438;-69
2022/01/13 13:55:13;;;;;;;36.10;20.05;;;;;;;;;;5095455;28;20027;-68
2022/01/13 13:57:39;;;;;;;37.33;19.85;;;;;;;;;;5095378;28;20028;-68
2022/01/13 14:00:10;;;;;;;36.35;19.30;;;;;;;;;;5094927;28;20028;-69
2022/01/13 14:02:37;;;;;;;31.83;19.17;;;;;;;;;;5095271;28;20026;-68
2022/01/13 14:05:07;;;;;;;38.03;20.55;;;;;;;;;;5095242;28;20027;-68
2022/01/13 14:07:38;;;;;;;33.63;19.10;;;;;;;;;;5094708;28;20020;-68
2022/01/13 14:10:15;;;;;;;35.70;19.55;;;;;;;;;;5094973;28;20056;-69
2022/01/13 14:13:02;;;;;;;30.77;17.38;;;;;;;;;;5093147;28;20028;-69
2022/01/13 14:15:36;;;;;;;36.75;20.58;;;;;;;;;;5094639;28;20018;-70
2022/01/13 14:18:09;;;;;;;31.50;20.10;;;;;;;;;;5095205;28;20095;-69
2022/01/13 14:20:37;;;;;;;36.35;20.73;;;;;;;;;;5094733;28;20029;-68
2022/01/13 14:23:05;;;;;;;36.90;18.73;;;;;;;;;;5095089;28;20024;-68
2022/01/13 14:25:32;;;;;;;37.17;19.92;;;;;;;;;;5094820;28;20039;-68
2022/01/13 14:28:04;;;;;;;36.30;19.88;;;;;;;;;;5094427;28;20024;-68
2022/01/13 14:30:30;;;;;;;39.13;21.70;;;;;;;;;;5094866;28;20020;-68
2022/01/13 14:33:16;;;;;;;35.35;19.52;;;;;;;;;;5094767;28;20054;-70
2022/01/13 14:35:42;;;;;;;31.73;17.90;;;;;;;;;;5093934;28;20020;-69
2022/01/13 14:38:12;;;;;;;32.20;17.45;;;;;;;;;;5094734;28;20514;-68
2022/01/13 14:40:45;;;;;;;36.65;22.58;;;;;;;;;;5094587;28;20024;-69
2022/01/13 14:43:19;;;;;;;35.30;20.30;;;;;;;;;;5094117;28;20070;-68
2022/01/13 14:45:47;;;;;;;32.03;19.08;;;;;;;;;;5093471;28;20371;-69